sensor_id;sensor_type;location;lat;lon;timestamp;P1;durP1;ratioP1;P2;durP2;ratioP2
80273;SDS011;69576;51.902;-8.462;2023-07-31T00:01:53;4.80;;;2.20;;
80273;SDS011;69576;51.902;-8.462;2023-07-31T00:04:21;2.10;;;1.33;;
80273;SDS011;69576;51.902;-8.462;2023-07-31T00:06:47;5.95;;;1.75;;
80273;SDS011;69576;51.902;-8.462;2023-07-31T00:09:13;4.72;;;1.75;;
80273;SDS011;69576;51.902;-8.462;2023-07-31T00:11:39;5.57;;;1.88;;
80273;SDS011;69576;51.902;-8.462;2023-07-31T00:14:06;5.03;;;1.88;;
80273;SDS011;69576;51.902;-8.462;2023-07-31T00:16:32;6.55;;;2.17;;
80273;SDS011;69576;51.902;-8.462;2023-07-31T00:18:58;3.30;;;1.85;;
80273;SDS011;69576;51.902;-8.462;2023-07-31T00:21:24;3.15;;;1.08;;
80273;SDS011;69576;51.902;-8.462;2023-07-31T00:23:49;5.07;;;1.60;;
80273;SDS011;69576;51.902;-8.462;2023-07-31T00:26:15;1.98;;;1.30;;
80273;SDS011;69576;51.902;-8.462;2023-07-31T00:28:43;5.22;;;2.13;;
80273;SDS011;69576;51.902;-8.462;2023-07-31T00:31:09;4.25;;;2.08;;
80273;SDS011;69576;51.902;-8.462;2023-07-31T00:33:37;5.35;;;1.85;;
80273;SDS011;69576;51.902;-8.462;2023-07-31T00:36:03;2.00;;;1.58;;
80273;SDS011;69576;51.902;-8.462;2023-07-31T00:38:29;4.53;;;1.85;;
80273;SDS011;69576;51.902;-8.462;2023-07-31T00:40:55;9.27;;;1.95;;
80273;SDS011;69576;51.902;-8.462;2023-07-31T00:43:24;3.55;;;2.05;;
80273;SDS011;69576;51.902;-8.462;2023-07-31T00:45:50;3.80;;;1.77;;
80273;SDS011;69576;51.902;-8.462;2023-07-31T00:48:18;4.43;;;1.52;;
80273;SDS011;69576;51.902;-8.462;2023-07-31T00:50:44;7.85;;;2.17;;
80273;SDS011;69576;51.902;-8.462;2023-07-31T00:53:10;6.82;;;2.03;;
80273;SDS011;69576;51.902;-8.462;2023-07-31T00:55:40;3.17;;;1.65;;
80273;SDS011;69576;51.902;-8.462;2023-07-31T00:58:10;3.78;;;1.63;;
80273;SDS011;69576;51.902;-8.462;2023-07-31T01:00:35;4.50;;;1.80;;
80273;SDS011;69576;51.902;-8.462;2023-07-31T01:03:03;4.43;;;2.50;;
80273;SDS011;69576;51.902;-8.462;2023-07-31T01:06:18;6.43;;;2.10;;
80273;SDS011;69576;51.902;-8.462;2023-07-31T01:11:04;4.35;;;2.08;;
80273;SDS011;69576;51.902;-8.462;2023-07-31T01:13:39;6.75;;;1.95;;
80273;SDS011;69576;51.902;-8.462;2023-07-31T01:16:07;2.38;;;1.40;;
80273;SDS011;69576;51.902;-8.462;2023-07-31T01:18:33;4.07;;;1.40;;
80273;SDS011;69576;51.902;-8.462;2023-07-31T01:21:10;5.43;;;1.80;;
80273;SDS011;69576;51.902;-8.462;2023-07-31T01:26:38;5.63;;;2.42;;
80273;SDS011;69576;51.902;-8.462;2023-07-31T01:29:10;3.83;;;1.58;;
80273;SDS011;69576;51.902;-8.462;2023-07-31T01:31:50;4.05;;;1.70;;
80273;SDS011;69576;51.902;-8.462;2023-07-31T01:34:20;5.30;;;3.15;;
80273;SDS011;69576;51.902;-8.462;2023-07-31T01:36:49;5.88;;;2.00;;
80273;SDS011;69576;51.902;-8.462;2023-07-31T01:39:15;4.50;;;2.20;;
80273;SDS011;69576;51.902;-8.462;2023-07-31T01:41:43;6.57;;;1.95;;
80273;SDS011;69576;51.902;-8.462;2023-07-31T01:44:09;4.43;;;1.90;;
80273;SDS011;69576;51.902;-8.462;2023-07-31T01:46:37;2.78;;;1.55;;
80273;SDS011;69576;51.902;-8.462;2023-07-31T01:49:02;4.10;;;2.05;;
80273;SDS011;69576;51.902;-8.462;2023-07-31T01:51:31;4.05;;;1.77;;
80273;SDS011;69576;51.902;-8.462;2023-07-31T01:54:00;5.55;;;2.05;;
80273;SDS011;69576;51.902;-8.462;2023-07-31T01:56:26;5.30;;;2.30;;
80273;SDS011;69576;51.902;-8.462;2023-07-31T01:58:52;2.65;;;1.58;;
80273;SDS011;69576;51.902;-8.462;2023-07-31T02:01:20;5.13;;;2.13;;
80273;SDS011;69576;51.902;-8.462;2023-07-31T02:03:46;7.57;;;2.75;;
80273;SDS011;69576;51.902;-8.462;2023-07-31T02:06:11;5.45;;;2.00;;
80273;SDS011;69576;51.902;-8.462;2023-07-31T02:08:37;5.28;;;1.77;;
80273;SDS011;69576;51.902;-8.462;2023-07-31T02:11:04;5.72;;;1.80;;
80273;SDS011;69576;51.902;-8.462;2023-07-31T02:13:29;5.20;;;1.92;;
80273;SDS011;69576;51.902;-8.462;2023-07-31T02:15:57;4.25;;;2.38;;
80273;SDS011;69576;51.902;-8.462;2023-07-31T02:18:23;4.35;;;1.77;;
80273;SDS011;69576;51.902;-8.462;2023-07-31T02:20:49;3.97;;;1.88;;
80273;SDS011;69576;51.902;-8.462;2023-07-31T02:23:16;7.40;;;2.35;;
80273;SDS011;69576;51.902;-8.462;2023-07-31T02:25:45;3.00;;;1.70;;
80273;SDS011;69576;51.902;-8.462;2023-07-31T02:28:11;6.45;;;2.53;;
80273;SDS011;69576;51.902;-8.462;2023-07-31T02:30:36;5.10;;;1.92;;
80273;SDS011;69576;51.902;-8.462;2023-07-31T02:33:03;3.20;;;2.05;;
80273;SDS011;69576;51.902;-8.462;2023-07-31T02:35:29;5.60;;;2.55;;
80273;SDS011;69576;51.902;-8.462;2023-07-31T02:37:57;4.63;;;1.98;;
80273;SDS011;69576;51.902;-8.462;2023-07-31T02:40:23;3.42;;;1.50;;
80273;SDS011;69576;51.902;-8.462;2023-07-31T02:42:49;4.35;;;1.92;;
80273;SDS011;69576;51.902;-8.462;2023-07-31T02:45:14;5.97;;;2.08;;
80273;SDS011;69576;51.902;-8.462;2023-07-31T02:47:42;2.40;;;0.98;;
80273;SDS011;69576;51.902;-8.462;2023-07-31T02:50:08;5.22;;;1.45;;
80273;SDS011;69576;51.902;-8.462;2023-07-31T02:52:36;3.75;;;1.58;;
80273;SDS011;69576;51.902;-8.462;2023-07-31T02:55:02;5.45;;;1.73;;
80273;SDS011;69576;51.902;-8.462;2023-07-31T02:57:30;4.47;;;2.30;;
80273;SDS011;69576;51.902;-8.462;2023-07-31T02:59:59;6.07;;;2.00;;
80273;SDS011;69576;51.902;-8.462;2023-07-31T03:02:24;4.18;;;2.10;;
80273;SDS011;69576;51.902;-8.462;2023-07-31T03:04:50;5.72;;;2.28;;
80273;SDS011;69576;51.902;-8.462;2023-07-31T03:07:16;4.18;;;1.88;;
80273;SDS011;69576;51.902;-8.462;2023-07-31T03:09:42;4.47;;;2.00;;
80273;SDS011;69576;51.902;-8.462;2023-07-31T03:12:08;4.90;;;1.73;;
80273;SDS011;69576;51.902;-8.462;2023-07-31T03:14:33;3.10;;;1.75;;
80273;SDS011;69576;51.902;-8.462;2023-07-31T03:17:01;2.83;;;1.30;;
80273;SDS011;69576;51.902;-8.462;2023-07-31T03:19:32;4.55;;;2.35;;
80273;SDS011;69576;51.902;-8.462;2023-07-31T03:21:58;3.55;;;1.83;;
80273;SDS011;69576;51.902;-8.462;2023-07-31T03:24:25;5.40;;;1.38;;
80273;SDS011;69576;51.902;-8.462;2023-07-31T03:26:51;4.15;;;1.88;;
80273;SDS011;69576;51.902;-8.462;2023-07-31T03:29:16;4.38;;;2.08;;
80273;SDS011;69576;51.902;-8.462;2023-07-31T03:31:42;4.05;;;1.67;;
80273;SDS011;69576;51.902;-8.462;2023-07-31T03:34:08;5.65;;;1.80;;
80273;SDS011;69576;51.902;-8.462;2023-07-31T03:36:36;4.32;;;1.60;;
80273;SDS011;69576;51.902;-8.462;2023-07-31T03:39:04;3.50;;;1.60;;
80273;SDS011;69576;51.902;-8.462;2023-07-31T03:41:29;3.00;;;1.77;;
80273;SDS011;69576;51.902;-8.462;2023-07-31T03:43:57;4.50;;;1.90;;
80273;SDS011;69576;51.902;-8.462;2023-07-31T03:46:24;3.60;;;1.65;;
80273;SDS011;69576;51.902;-8.462;2023-07-31T03:48:50;2.25;;;1.42;;
80273;SDS011;69576;51.902;-8.462;2023-07-31T03:51:16;3.08;;;1.90;;
80273;SDS011;69576;51.902;-8.462;2023-07-31T03:53:42;1.52;;;1.23;;
80273;SDS011;69576;51.902;-8.462;2023-07-31T03:56:08;6.25;;;1.83;;
80273;SDS011;69576;51.902;-8.462;2023-07-31T03:58:37;3.65;;;1.98;;
80273;SDS011;69576;51.902;-8.462;2023-07-31T04:01:03;3.60;;;1.40;;
80273;SDS011;69576;51.902;-8.462;2023-07-31T04:03:31;4.95;;;2.03;;
80273;SDS011;69576;51.902;-8.462;2023-07-31T04:05:59;7.68;;;1.77;;
80273;SDS011;69576;51.902;-8.462;2023-07-31T04:08:25;2.70;;;1.83;;
80273;SDS011;69576;51.902;-8.462;2023-07-31T04:10:53;8.55;;;2.10;;
80273;SDS011;69576;51.902;-8.462;2023-07-31T04:13:19;5.63;;;2.08;;
80273;SDS011;69576;51.902;-8.462;2023-07-31T04:15:50;3.70;;;1.73;;
80273;SDS011;69576;51.902;-8.462;2023-07-31T04:18:16;5.63;;;1.75;;
80273;SDS011;69576;51.902;-8.462;2023-07-31T04:20:44;4.85;;;1.75;;
80273;SDS011;69576;51.902;-8.462;2023-07-31T04:23:12;5.25;;;2.05;;
80273;SDS011;69576;51.902;-8.462;2023-07-31T04:25:38;3.40;;;1.63;;
80273;SDS011;69576;51.902;-8.462;2023-07-31T04:28:04;5.25;;;1.92;;
80273;SDS011;69576;51.902;-8.462;2023-07-31T04:30:30;5.45;;;2.30;;
80273;SDS011;69576;51.902;-8.462;2023-07-31T04:32:55;7.13;;;2.13;;
80273;SDS011;69576;51.902;-8.462;2023-07-31T04:35:21;4.60;;;1.90;;
80273;SDS011;69576;51.902;-8.462;2023-07-31T04:37:49;2.17;;;1.30;;
80273;SDS011;69576;51.902;-8.462;2023-07-31T04:40:18;2.85;;;1.45;;
80273;SDS011;69576;51.902;-8.462;2023-07-31T04:45:11;4.20;;;2.00;;
80273;SDS011;69576;51.902;-8.462;2023-07-31T04:47:37;2.70;;;1.65;;
80273;SDS011;69576;51.902;-8.462;2023-07-31T04:50:03;5.38;;;1.73;;
80273;SDS011;69576;51.902;-8.462;2023-07-31T04:52:29;3.85;;;1.92;;
80273;SDS011;69576;51.902;-8.462;2023-07-31T04:54:55;5.65;;;1.92;;
80273;SDS011;69576;51.902;-8.462;2023-07-31T04:57:23;5.07;;;1.80;;
80273;SDS011;69576;51.902;-8.462;2023-07-31T04:59:49;4.63;;;1.85;;
80273;SDS011;69576;51.902;-8.462;2023-07-31T05:02:14;4.18;;;2.10;;
80273;SDS011;69576;51.902;-8.462;2023-07-31T05:04:42;4.75;;;2.10;;
80273;SDS011;69576;51.902;-8.462;2023-07-31T05:07:08;4.70;;;1.88;;
80273;SDS011;69576;51.902;-8.462;2023-07-31T05:09:34;5.70;;;2.47;;
80273;SDS011;69576;51.902;-8.462;2023-07-31T05:12:00;4.82;;;2.20;;
80273;SDS011;69576;51.902;-8.462;2023-07-31T05:14:26;5.30;;;2.25;;
80273;SDS011;69576;51.902;-8.462;2023-07-31T05:16:53;6.40;;;2.30;;
80273;SDS011;69576;51.902;-8.462;2023-07-31T05:19:19;5.63;;;2.60;;
80273;SDS011;69576;51.902;-8.462;2023-07-31T05:21:45;5.82;;;3.85;;
80273;SDS011;69576;51.902;-8.462;2023-07-31T05:24:11;6.25;;;2.28;;
80273;SDS011;69576;51.902;-8.462;2023-07-31T05:26:36;5.43;;;2.63;;
80273;SDS011;69576;51.902;-8.462;2023-07-31T05:29:07;3.30;;;1.77;;
80273;SDS011;69576;51.902;-8.462;2023-07-31T05:31:32;6.30;;;2.30;;
80273;SDS011;69576;51.902;-8.462;2023-07-31T05:33:58;4.15;;;1.95;;
80273;SDS011;69576;51.902;-8.462;2023-07-31T05:36:24;7.47;;;2.03;;
80273;SDS011;69576;51.902;-8.462;2023-07-31T05:38:50;3.50;;;2.10;;
80273;SDS011;69576;51.902;-8.462;2023-07-31T05:41:16;4.93;;;1.60;;
80273;SDS011;69576;51.902;-8.462;2023-07-31T05:43:45;5.15;;;2.35;;
80273;SDS011;69576;51.902;-8.462;2023-07-31T05:46:11;3.80;;;1.77;;
80273;SDS011;69576;51.902;-8.462;2023-07-31T05:48:37;3.35;;;2.05;;
80273;SDS011;69576;51.902;-8.462;2023-07-31T05:51:03;8.02;;;2.75;;
80273;SDS011;69576;51.902;-8.462;2023-07-31T05:53:31;4.93;;;2.20;;
80273;SDS011;69576;51.902;-8.462;2023-07-31T05:55:59;5.50;;;1.98;;
80273;SDS011;69576;51.902;-8.462;2023-07-31T05:58:25;6.25;;;1.88;;
80273;SDS011;69576;51.902;-8.462;2023-07-31T06:00:50;4.50;;;1.70;;
80273;SDS011;69576;51.902;-8.462;2023-07-31T06:03:16;4.80;;;2.45;;
80273;SDS011;69576;51.902;-8.462;2023-07-31T06:05:44;5.95;;;2.88;;
80273;SDS011;69576;51.902;-8.462;2023-07-31T06:08:12;5.15;;;2.25;;
80273;SDS011;69576;51.902;-8.462;2023-07-31T06:10:38;7.55;;;2.15;;
80273;SDS011;69576;51.902;-8.462;2023-07-31T06:13:04;4.38;;;2.30;;
80273;SDS011;69576;51.902;-8.462;2023-07-31T06:15:29;5.90;;;2.33;;
80273;SDS011;69576;51.902;-8.462;2023-07-31T06:17:57;7.18;;;2.17;;
80273;SDS011;69576;51.902;-8.462;2023-07-31T06:20:24;5.13;;;2.17;;
80273;SDS011;69576;51.902;-8.462;2023-07-31T06:22:50;6.55;;;2.33;;
80273;SDS011;69576;51.902;-8.462;2023-07-31T06:25:15;6.57;;;2.47;;
80273;SDS011;69576;51.902;-8.462;2023-07-31T06:27:43;3.80;;;1.95;;
80273;SDS011;69576;51.902;-8.462;2023-07-31T06:30:11;7.97;;;3.10;;
80273;SDS011;69576;51.902;-8.462;2023-07-31T06:32:37;6.20;;;2.28;;
80273;SDS011;69576;51.902;-8.462;2023-07-31T06:35:03;5.45;;;2.50;;
80273;SDS011;69576;51.902;-8.462;2023-07-31T06:37:31;7.32;;;2.90;;
80273;SDS011;69576;51.902;-8.462;2023-07-31T06:39:57;6.47;;;2.60;;
80273;SDS011;69576;51.902;-8.462;2023-07-31T06:42:30;6.88;;;2.60;;
80273;SDS011;69576;51.902;-8.462;2023-07-31T06:44:58;4.70;;;2.00;;
80273;SDS011;69576;51.902;-8.462;2023-07-31T06:47:24;5.47;;;2.50;;
80273;SDS011;69576;51.902;-8.462;2023-07-31T06:49:52;6.75;;;2.38;;
80273;SDS011;69576;51.902;-8.462;2023-07-31T06:52:20;3.90;;;2.13;;
80273;SDS011;69576;51.902;-8.462;2023-07-31T06:54:59;6.53;;;2.10;;
80273;SDS011;69576;51.902;-8.462;2023-07-31T06:57:29;5.85;;;2.35;;
80273;SDS011;69576;51.902;-8.462;2023-07-31T06:59:55;4.18;;;2.17;;
80273;SDS011;69576;51.902;-8.462;2023-07-31T07:02:21;6.28;;;2.30;;
80273;SDS011;69576;51.902;-8.462;2023-07-31T07:04:46;4.90;;;2.00;;
80273;SDS011;69576;51.902;-8.462;2023-07-31T07:07:16;7.63;;;2.58;;
80273;SDS011;69576;51.902;-8.462;2023-07-31T07:09:42;11.60;;;2.42;;
80273;SDS011;69576;51.902;-8.462;2023-07-31T07:12:08;6.15;;;2.35;;
80273;SDS011;69576;51.902;-8.462;2023-07-31T07:14:33;4.10;;;2.25;;
80273;SDS011;69576;51.902;-8.462;2023-07-31T07:16:59;4.70;;;2.17;;
80273;SDS011;69576;51.902;-8.462;2023-07-31T07:19:32;8.07;;;1.90;;
80273;SDS011;69576;51.902;-8.462;2023-07-31T07:21:58;10.10;;;2.50;;
80273;SDS011;69576;51.902;-8.462;2023-07-31T07:24:26;2.85;;;1.65;;
80273;SDS011;69576;51.902;-8.462;2023-07-31T07:26:55;7.78;;;2.53;;
80273;SDS011;69576;51.902;-8.462;2023-07-31T07:29:21;3.80;;;2.20;;
80273;SDS011;69576;51.902;-8.462;2023-07-31T07:31:49;6.32;;;2.72;;
80273;SDS011;69576;51.902;-8.462;2023-07-31T07:34:17;6.80;;;2.30;;
80273;SDS011;69576;51.902;-8.462;2023-07-31T07:36:47;6.18;;;1.70;;
80273;SDS011;69576;51.902;-8.462;2023-07-31T07:39:13;6.20;;;2.15;;
80273;SDS011;69576;51.902;-8.462;2023-07-31T07:41:39;7.53;;;2.50;;
80273;SDS011;69576;51.902;-8.462;2023-07-31T07:44:05;7.50;;;2.60;;
80273;SDS011;69576;51.902;-8.462;2023-07-31T07:46:35;7.70;;;2.10;;
80273;SDS011;69576;51.902;-8.462;2023-07-31T07:49:03;4.28;;;2.05;;
80273;SDS011;69576;51.902;-8.462;2023-07-31T07:51:29;7.93;;;2.88;;
80273;SDS011;69576;51.902;-8.462;2023-07-31T07:53:56;7.55;;;2.47;;
80273;SDS011;69576;51.902;-8.462;2023-07-31T07:56:26;5.60;;;1.92;;
80273;SDS011;69576;51.902;-8.462;2023-07-31T07:58:52;6.53;;;2.50;;
80273;SDS011;69576;51.902;-8.462;2023-07-31T08:01:20;3.60;;;2.03;;
80273;SDS011;69576;51.902;-8.462;2023-07-31T08:03:47;10.27;;;2.78;;
80273;SDS011;69576;51.902;-8.462;2023-07-31T08:06:15;8.18;;;2.67;;
80273;SDS011;69576;51.902;-8.462;2023-07-31T08:08:40;6.65;;;2.65;;
80273;SDS011;69576;51.902;-8.462;2023-07-31T08:11:06;10.43;;;2.95;;
80273;SDS011;69576;51.902;-8.462;2023-07-31T08:13:32;7.15;;;2.40;;
80273;SDS011;69576;51.902;-8.462;2023-07-31T08:15:58;7.57;;;2.83;;
80273;SDS011;69576;51.902;-8.462;2023-07-31T08:18:23;8.88;;;2.88;;
80273;SDS011;69576;51.902;-8.462;2023-07-31T08:20:49;6.03;;;2.40;;
80273;SDS011;69576;51.902;-8.462;2023-07-31T08:23:15;7.97;;;2.30;;
80273;SDS011;69576;51.902;-8.462;2023-07-31T08:25:41;4.97;;;2.95;;
80273;SDS011;69576;51.902;-8.462;2023-07-31T08:28:07;6.03;;;2.50;;
80273;SDS011;69576;51.902;-8.462;2023-07-31T08:30:35;7.35;;;2.90;;
80273;SDS011;69576;51.902;-8.462;2023-07-31T08:33:01;9.57;;;2.83;;
80273;SDS011;69576;51.902;-8.462;2023-07-31T08:35:27;3.38;;;2.20;;
80273;SDS011;69576;51.902;-8.462;2023-07-31T08:37:54;2.22;;;1.98;;
80273;SDS011;69576;51.902;-8.462;2023-07-31T08:40:22;4.63;;;1.70;;
80273;SDS011;69576;51.902;-8.462;2023-07-31T08:42:48;4.65;;;2.33;;
80273;SDS011;69576;51.902;-8.462;2023-07-31T08:45:18;5.75;;;1.77;;
80273;SDS011;69576;51.902;-8.462;2023-07-31T08:47:46;8.00;;;3.72;;
80273;SDS011;69576;51.902;-8.462;2023-07-31T08:50:18;5.55;;;2.22;;
80273;SDS011;69576;51.902;-8.462;2023-07-31T08:52:48;4.68;;;2.60;;
80273;SDS011;69576;51.902;-8.462;2023-07-31T08:55:18;2.00;;;1.08;;
80273;SDS011;69576;51.902;-8.462;2023-07-31T08:57:50;5.68;;;1.85;;
80273;SDS011;69576;51.902;-8.462;2023-07-31T09:00:20;3.50;;;1.90;;
80273;SDS011;69576;51.902;-8.462;2023-07-31T09:05:26;6.90;;;2.33;;
80273;SDS011;69576;51.902;-8.462;2023-07-31T09:07:54;5.70;;;2.58;;
80273;SDS011;69576;51.902;-8.462;2023-07-31T09:10:23;2.67;;;2.15;;
80273;SDS011;69576;51.902;-8.462;2023-07-31T09:12:50;10.57;;;2.38;;
80273;SDS011;69576;51.902;-8.462;2023-07-31T09:15:17;3.33;;;1.48;;
80273;SDS011;69576;51.902;-8.462;2023-07-31T09:17:44;4.13;;;2.05;;
80273;SDS011;69576;51.902;-8.462;2023-07-31T09:20:15;5.50;;;2.47;;
80273;SDS011;69576;51.902;-8.462;2023-07-31T09:22:42;6.57;;;2.50;;
80273;SDS011;69576;51.902;-8.462;2023-07-31T09:30:15;3.65;;;1.40;;
80273;SDS011;69576;51.902;-8.462;2023-07-31T09:32:45;6.95;;;2.00;;
80273;SDS011;69576;51.902;-8.462;2023-07-31T09:35:20;7.75;;;2.20;;
80273;SDS011;69576;51.902;-8.462;2023-07-31T09:37:57;3.13;;;1.60;;
80273;SDS011;69576;51.902;-8.462;2023-07-31T09:40:29;3.20;;;1.13;;
80273;SDS011;69576;51.902;-8.462;2023-07-31T09:43:00;4.72;;;1.70;;
80273;SDS011;69576;51.902;-8.462;2023-07-31T09:45:28;5.50;;;2.08;;
80273;SDS011;69576;51.902;-8.462;2023-07-31T09:47:54;3.03;;;1.30;;
80273;SDS011;69576;51.902;-8.462;2023-07-31T09:50:22;7.18;;;1.55;;
80273;SDS011;69576;51.902;-8.462;2023-07-31T09:55:19;4.95;;;1.92;;
80273;SDS011;69576;51.902;-8.462;2023-07-31T09:57:46;5.32;;;1.88;;
80273;SDS011;69576;51.902;-8.462;2023-07-31T10:00:14;7.25;;;2.22;;
80273;SDS011;69576;51.902;-8.462;2023-07-31T10:02:42;4.40;;;1.83;;
80273;SDS011;69576;51.902;-8.462;2023-07-31T10:05:12;5.65;;;1.58;;
80273;SDS011;69576;51.902;-8.462;2023-07-31T10:07:52;4.82;;;2.22;;
80273;SDS011;69576;51.902;-8.462;2023-07-31T10:10:22;1.25;;;0.80;;
80273;SDS011;69576;51.902;-8.462;2023-07-31T10:15:15;1.65;;;1.05;;
80273;SDS011;69576;51.902;-8.462;2023-07-31T10:17:43;6.05;;;1.60;;
80273;SDS011;69576;51.902;-8.462;2023-07-31T10:20:12;1.25;;;0.68;;
80273;SDS011;69576;51.902;-8.462;2023-07-31T10:22:39;3.42;;;1.40;;
80273;SDS011;69576;51.902;-8.462;2023-07-31T10:25:09;2.20;;;0.77;;
80273;SDS011;69576;51.902;-8.462;2023-07-31T10:27:35;1.00;;;0.73;;
80273;SDS011;69576;51.902;-8.462;2023-07-31T10:30:03;1.10;;;0.82;;
80273;SDS011;69576;51.902;-8.462;2023-07-31T10:32:33;3.10;;;1.13;;
80273;SDS011;69576;51.902;-8.462;2023-07-31T10:35:00;2.08;;;1.13;;
80273;SDS011;69576;51.902;-8.462;2023-07-31T10:37:29;2.08;;;1.15;;
80273;SDS011;69576;51.902;-8.462;2023-07-31T10:42:37;2.42;;;1.17;;
80273;SDS011;69576;51.902;-8.462;2023-07-31T10:45:05;2.35;;;1.33;;
80273;SDS011;69576;51.902;-8.462;2023-07-31T10:48:17;3.95;;;1.20;;
80273;SDS011;69576;51.902;-8.462;2023-07-31T10:50:28;2.65;;;1.20;;
80273;SDS011;69576;51.902;-8.462;2023-07-31T10:52:58;2.55;;;0.82;;
80273;SDS011;69576;51.902;-8.462;2023-07-31T10:55:29;1.42;;;1.02;;
80273;SDS011;69576;51.902;-8.462;2023-07-31T10:58:00;4.63;;;1.45;;
80273;SDS011;69576;51.902;-8.462;2023-07-31T11:00:36;1.73;;;1.02;;
80273;SDS011;69576;51.902;-8.462;2023-07-31T11:03:04;3.53;;;1.25;;
80273;SDS011;69576;51.902;-8.462;2023-07-31T11:08:11;1.95;;;1.25;;
80273;SDS011;69576;51.902;-8.462;2023-07-31T11:10:40;4.15;;;1.20;;
80273;SDS011;69576;51.902;-8.462;2023-07-31T11:13:06;1.63;;;1.10;;
80273;SDS011;69576;51.902;-8.462;2023-07-31T11:15:33;3.65;;;1.20;;
80273;SDS011;69576;51.902;-8.462;2023-07-31T11:18:02;3.70;;;1.63;;
80273;SDS011;69576;51.902;-8.462;2023-07-31T11:20:30;4.30;;;1.60;;
80273;SDS011;69576;51.902;-8.462;2023-07-31T11:23:05;6.10;;;1.42;;
80273;SDS011;69576;51.902;-8.462;2023-07-31T11:25:33;4.97;;;1.75;;
80273;SDS011;69576;51.902;-8.462;2023-07-31T11:28:02;6.00;;;1.73;;
80273;SDS011;69576;51.902;-8.462;2023-07-31T11:30:32;6.03;;;1.50;;
80273;SDS011;69576;51.902;-8.462;2023-07-31T11:32:59;3.13;;;1.20;;
80273;SDS011;69576;51.902;-8.462;2023-07-31T11:35:28;2.75;;;1.35;;
80273;SDS011;69576;51.902;-8.462;2023-07-31T11:38:00;3.97;;;1.67;;
80273;SDS011;69576;51.902;-8.462;2023-07-31T11:40:27;2.10;;;1.15;;
80273;SDS011;69576;51.902;-8.462;2023-07-31T11:42:57;2.10;;;1.20;;
80273;SDS011;69576;51.902;-8.462;2023-07-31T11:45:26;4.53;;;1.10;;
80273;SDS011;69576;51.902;-8.462;2023-07-31T11:47:58;2.17;;;1.15;;
80273;SDS011;69576;51.902;-8.462;2023-07-31T11:50:28;2.75;;;1.35;;
80273;SDS011;69576;51.902;-8.462;2023-07-31T11:53:00;4.93;;;1.10;;
80273;SDS011;69576;51.902;-8.462;2023-07-31T11:55:29;3.33;;;1.73;;
80273;SDS011;69576;51.902;-8.462;2023-07-31T11:57:56;6.20;;;2.03;;
80273;SDS011;69576;51.902;-8.462;2023-07-31T12:00:24;3.63;;;1.60;;
80273;SDS011;69576;51.902;-8.462;2023-07-31T12:05:23;1.33;;;0.50;;
80273;SDS011;69576;51.902;-8.462;2023-07-31T12:07:52;2.00;;;0.57;;
80273;SDS011;69576;51.902;-8.462;2023-07-31T12:10:25;4.43;;;1.90;;
80273;SDS011;69576;51.902;-8.462;2023-07-31T12:15:44;3.65;;;1.42;;
80273;SDS011;69576;51.902;-8.462;2023-07-31T12:18:15;3.70;;;1.15;;
80273;SDS011;69576;51.902;-8.462;2023-07-31T12:20:46;3.38;;;1.52;;
80273;SDS011;69576;51.902;-8.462;2023-07-31T12:23:13;3.25;;;1.27;;
80273;SDS011;69576;51.902;-8.462;2023-07-31T12:25:44;1.08;;;0.82;;
80273;SDS011;69576;51.902;-8.462;2023-07-31T12:30:39;4.47;;;1.80;;
80273;SDS011;69576;51.902;-8.462;2023-07-31T12:35:41;2.63;;;1.38;;
80273;SDS011;69576;51.902;-8.462;2023-07-31T12:38:10;1.38;;;1.08;;
80273;SDS011;69576;51.902;-8.462;2023-07-31T12:40:42;3.28;;;0.73;;
80273;SDS011;69576;51.902;-8.462;2023-07-31T12:43:10;3.47;;;1.45;;
80273;SDS011;69576;51.902;-8.462;2023-07-31T12:45:36;0.50;;;0.50;;
80273;SDS011;69576;51.902;-8.462;2023-07-31T12:48:01;2.80;;;1.00;;
80273;SDS011;69576;51.902;-8.462;2023-07-31T12:50:27;3.97;;;1.90;;
80273;SDS011;69576;51.902;-8.462;2023-07-31T12:52:53;3.17;;;0.82;;
80273;SDS011;69576;51.902;-8.462;2023-07-31T12:55:20;2.83;;;1.55;;
80273;SDS011;69576;51.902;-8.462;2023-07-31T12:57:46;3.58;;;1.35;;
80273;SDS011;69576;51.902;-8.462;2023-07-31T13:00:12;3.30;;;1.75;;
80273;SDS011;69576;51.902;-8.462;2023-07-31T13:02:38;4.05;;;1.67;;
80273;SDS011;69576;51.902;-8.462;2023-07-31T13:05:07;5.25;;;1.60;;
80273;SDS011;69576;51.902;-8.462;2023-07-31T13:07:33;1.20;;;0.75;;
80273;SDS011;69576;51.902;-8.462;2023-07-31T13:09:59;0.35;;;0.35;;
80273;SDS011;69576;51.902;-8.462;2023-07-31T13:12:27;4.60;;;1.83;;
80273;SDS011;69576;51.902;-8.462;2023-07-31T13:14:53;2.40;;;0.93;;
80273;SDS011;69576;51.902;-8.462;2023-07-31T13:17:18;4.88;;;1.20;;
80273;SDS011;69576;51.902;-8.462;2023-07-31T13:19:44;1.33;;;1.00;;
80273;SDS011;69576;51.902;-8.462;2023-07-31T13:22:12;0.80;;;0.22;;
80273;SDS011;69576;51.902;-8.462;2023-07-31T13:24:38;2.33;;;1.25;;
80273;SDS011;69576;51.902;-8.462;2023-07-31T13:27:03;2.75;;;1.40;;
80273;SDS011;69576;51.902;-8.462;2023-07-31T13:29:32;2.20;;;1.17;;
80273;SDS011;69576;51.902;-8.462;2023-07-31T13:31:58;4.22;;;1.50;;
80273;SDS011;69576;51.902;-8.462;2023-07-31T13:34:24;2.25;;;1.45;;
80273;SDS011;69576;51.902;-8.462;2023-07-31T13:36:49;0.85;;;0.80;;
80273;SDS011;69576;51.902;-8.462;2023-07-31T13:39:18;3.22;;;1.27;;
80273;SDS011;69576;51.902;-8.462;2023-07-31T13:41:43;2.33;;;1.20;;
80273;SDS011;69576;51.902;-8.462;2023-07-31T13:44:09;1.20;;;0.85;;
80273;SDS011;69576;51.902;-8.462;2023-07-31T13:46:35;2.03;;;1.10;;
80273;SDS011;69576;51.902;-8.462;2023-07-31T13:49:01;4.88;;;1.83;;
80273;SDS011;69576;51.902;-8.462;2023-07-31T13:51:29;2.17;;;1.00;;
80273;SDS011;69576;51.902;-8.462;2023-07-31T13:53:57;3.20;;;0.93;;
80273;SDS011;69576;51.902;-8.462;2023-07-31T13:56:28;2.72;;;0.88;;
80273;SDS011;69576;51.902;-8.462;2023-07-31T13:58:53;2.75;;;1.55;;
80273;SDS011;69576;51.902;-8.462;2023-07-31T14:01:19;0.63;;;0.52;;
80273;SDS011;69576;51.902;-8.462;2023-07-31T14:03:47;3.78;;;1.08;;
80273;SDS011;69576;51.902;-8.462;2023-07-31T14:06:13;2.15;;;1.17;;
80273;SDS011;69576;51.902;-8.462;2023-07-31T14:08:39;4.30;;;1.25;;
80273;SDS011;69576;51.902;-8.462;2023-07-31T14:11:05;2.35;;;1.25;;
80273;SDS011;69576;51.902;-8.462;2023-07-31T14:13:33;0.82;;;0.68;;
80273;SDS011;69576;51.902;-8.462;2023-07-31T14:15:58;0.95;;;0.82;;
80273;SDS011;69576;51.902;-8.462;2023-07-31T14:18:27;3.53;;;1.10;;
80273;SDS011;69576;51.902;-8.462;2023-07-31T14:20:53;3.92;;;1.38;;
80273;SDS011;69576;51.902;-8.462;2023-07-31T14:23:18;1.17;;;0.85;;
80273;SDS011;69576;51.902;-8.462;2023-07-31T14:25:45;1.95;;;1.20;;
80273;SDS011;69576;51.902;-8.462;2023-07-31T14:28:11;2.58;;;1.50;;
80273;SDS011;69576;51.902;-8.462;2023-07-31T14:30:44;1.35;;;0.52;;
80273;SDS011;69576;51.902;-8.462;2023-07-31T14:33:10;0.90;;;0.85;;
80273;SDS011;69576;51.902;-8.462;2023-07-31T14:35:40;2.88;;;1.35;;
80273;SDS011;69576;51.902;-8.462;2023-07-31T14:38:06;0.50;;;0.50;;
80273;SDS011;69576;51.902;-8.462;2023-07-31T14:40:31;1.77;;;1.13;;
80273;SDS011;69576;51.902;-8.462;2023-07-31T14:42:57;2.30;;;1.08;;
80273;SDS011;69576;51.902;-8.462;2023-07-31T14:45:25;2.05;;;1.05;;
80273;SDS011;69576;51.902;-8.462;2023-07-31T14:47:51;2.85;;;1.17;;
80273;SDS011;69576;51.902;-8.462;2023-07-31T14:50:17;4.03;;;1.88;;
80273;SDS011;69576;51.902;-8.462;2023-07-31T14:52:44;1.52;;;0.95;;
80273;SDS011;69576;51.902;-8.462;2023-07-31T14:55:13;2.97;;;1.80;;
80273;SDS011;69576;51.902;-8.462;2023-07-31T14:57:39;3.38;;;2.08;;
80273;SDS011;69576;51.902;-8.462;2023-07-31T15:00:07;3.47;;;1.27;;
80273;SDS011;69576;51.902;-8.462;2023-07-31T15:02:37;3.17;;;1.58;;
80273;SDS011;69576;51.902;-8.462;2023-07-31T15:05:05;1.70;;;1.40;;
80273;SDS011;69576;51.902;-8.462;2023-07-31T15:07:32;3.50;;;1.48;;
80273;SDS011;69576;51.902;-8.462;2023-07-31T15:09:58;1.00;;;0.75;;
80273;SDS011;69576;51.902;-8.462;2023-07-31T15:12:25;1.95;;;1.25;;